• Join FlightAware (Why Join?)
  • Login
  • US Flag 
08:57PM EDT


 

Airport Tracker/Info


-or-


 

Live Flight TrackerFlight Track Log ✈ AFL150 ✈ 2014年 02月 17日 ✈ UUEE / SVO - MUHA / HAV

Flight Track Log - Related Links

Times and Time Zones

All times are in EST time to prevent confusion due to time zone crossing. See the AFL150 flight status page for this flight to view local times or setup timezone preferences in your user account.

Time Position Orientation Groundspeed Altitude Reporting Facility
EST Latitude Longitude Course Direction KTS MPH feet Rate Location/Type
04:47AM 56.1776 36.7776 307° West  Level Estimated
04:48AM 56.2490 36.6023 306° West  Level Estimated
04:49AM 56.3201 36.4265 306° West  Level Estimated
04:50AM 56.3910 36.2499 306° West  Level Estimated
04:51AM 56.4616 36.0727 306° West  Level Estimated
04:52AM 56.5320 35.8949 306° West  Level Estimated
04:53AM 56.6021 35.7163 306° West  Level Estimated
04:54AM 56.6720 35.5372 305° West  Level Estimated
04:55AM 56.7416 35.3573 305° West  Level Estimated
04:56AM 56.8110 35.1768 305° West  Level Estimated
04:57AM 56.8801 34.9956 305° West  Level Estimated
04:58AM 56.9489 34.8138 305° West  Level Estimated
04:59AM 57.0175 34.6312 305° West  Level Estimated
05:00AM 57.0858 34.4481 305° West  Level Estimated
05:01AM 57.1538 34.2642 304° West  Level Estimated
05:02AM 57.2216 34.0796 304° West  Level Estimated
05:03AM 57.2891 33.8944 304° West  Level Estimated
05:04AM 57.3563 33.7085 304° West  Level Estimated
05:05AM 57.4232 33.5219 304° West  Level Estimated
05:06AM 57.4899 33.3347 304° West  Level Estimated
05:07AM 57.5563 33.1467 303° West  Level Estimated
05:08AM 57.6224 32.9581 303° West  Level Estimated
05:09AM 57.6882 32.7688 303° West  Level Estimated
05:10AM 57.7537 32.5788 303° West  Level Estimated
05:11AM 57.8190 32.3881 303° West  Level Estimated
05:12AM 57.8839 32.1967 303° West  Level Estimated
05:13AM 57.9486 32.0046 302° West  Level Estimated
05:14AM 58.0130 31.8118 302° West  Level Estimated
05:15AM 58.0771 31.6184 302° West  Level Estimated
05:16AM 58.1409 31.4242 302° West  Level Estimated
05:17AM 58.2044 31.2293 302° West  Level Estimated
05:18AM 58.2676 31.0338 302° West  Level Estimated
05:19AM 58.3306 30.8375 301° West  Level Estimated
05:20AM 58.3932 30.6406 301° West  Level Estimated
05:21AM 58.4555 30.4430 301° West  Level Estimated
05:22AM 58.5175 30.2446 301° West  Level Estimated
05:23AM 58.5792 30.0456 301° West  Level Estimated
05:24AM 58.6405 29.8458 301° West  Level Estimated
05:25AM 58.7016 29.6454 300° West  Level Estimated
05:26AM 58.7624 29.4442 300° West  Level Estimated
05:27AM 58.8228 29.2424 300° West  Level Estimated
05:28AM 58.8829 29.0398 300° West  Level Estimated
05:29AM 58.9427 28.8366 300° West  Level Estimated
05:30AM 59.0022 28.6326 300° West  Level Estimated
05:31AM 59.0614 28.4279 299° West  Level Estimated
05:32AM 59.1203 28.2226 299° West  Level Estimated
05:33AM 59.1788 28.0165 299° West  Level Estimated
05:34AM 59.2370 27.8097 299° West  Level Estimated
05:35AM 59.2948 27.6022 299° West  Level Estimated
05:36AM 59.3524 27.3940 299° West  Level Estimated
05:37AM 59.4096 27.1851 298° West  Level Estimated
05:38AM 59.4664 26.9755 298° West  Level Estimated
05:39AM 59.5230 26.7652 298° West  Level Estimated
05:40AM 59.5792 26.5542 298° West  Level Estimated
05:41AM 59.6350 26.3425 298° West  Level Estimated
05:42AM 59.6905 26.1301 297° West  Level Estimated
05:43AM 59.7457 25.9170 297° West  Level Estimated
05:44AM 59.8005 25.7031 297° West  Level Estimated
05:45AM 59.8550 25.4886 297° West  Level Estimated
05:46AM 59.9091 25.2734 297° West  Level Estimated
05:47AM 59.9628 25.0574 297° West  Level Estimated
05:48AM 60.0163 24.8408 296° West  Level Estimated
05:49AM 60.0693 24.6235 296° West  Level Estimated
05:50AM 60.1220 24.4055 296° West  Level Estimated
05:51AM 60.1744 24.1868 296° West  Level Estimated
05:52AM 60.2263 23.9673 296° West  Level Estimated
05:53AM 60.2780 23.7472 295° West  Level Estimated
05:54AM 60.3292 23.5264 295° West  Level Estimated
05:55AM 60.3801 23.3049 295° West  Level Estimated
05:56AM 60.4306 23.0828 295° West  Level Estimated
05:57AM 60.4808 22.8599 295° West  Level Estimated
05:58AM 60.5305 22.6363 294° West  Level Estimated
05:59AM 60.5799 22.4121 294° West  Level Estimated
06:00AM 60.6289 22.1871 294° West  Level Estimated
06:01AM 60.6776 21.9615 294° West  Level Estimated
06:02AM 60.7258 21.7352 294° West  Level Estimated
06:03AM 60.7737 21.5083 293° West  Level Estimated
06:04AM 60.8212 21.2806 293° West  Level Estimated
06:05AM 60.8683 21.0523 293° West  Level Estimated
06:06AM 60.9150 20.8233 293° West  Level Estimated
06:07AM 60.9614 20.5936 293° West  Level Estimated
06:08AM 61.0073 20.3633 292° West  Level Estimated
06:09AM 61.0528 20.1323 292° West  Level Estimated
06:10AM 61.0980 19.9007 292° West  Level Estimated
06:11AM 61.1427 19.6683 292° West  Level Estimated
06:12AM 61.1871 19.4354 292° West  Level Estimated
06:13AM 61.2310 19.2017 291° West  Level Estimated
06:14AM 61.2746 18.9674 291° West  Level Estimated
06:15AM 61.3177 18.7325 291° West  Level Estimated
06:16AM 61.3605 18.4970 291° West  Level Estimated
06:17AM 61.4028 18.2607 291° West  Level Estimated
06:18AM 61.4447 18.0239 290° West  Level Estimated
06:19AM 61.4862 17.7864 290° West  Level Estimated
06:20AM 61.5273 17.5483 290° West  Level Estimated
06:21AM 61.5680 17.3095 290° West  Level Estimated
06:22AM 61.6083 17.0702 290° West  Level Estimated
06:23AM 61.6481 16.8302 289° West  Level Estimated
06:24AM 61.6875 16.5896 289° West  Level Estimated
06:25AM 61.7265 16.3484 289° West  Level Estimated
06:26AM 61.7651 16.1066 289° West  Level Estimated
06:27AM 61.8032 15.8641 289° West  Level Estimated
06:28AM 61.8410 15.6211 288° West  Level Estimated
06:29AM 61.8782 15.3775 288° West  Level Estimated
06:30AM 61.9151 15.1333 288° West  Level Estimated
06:31AM 61.9515 14.8885 288° West  Level Estimated
06:32AM 61.9875 14.6431 287° West  Level Estimated
06:33AM 62.0230 14.3971 287° West  Level Estimated
06:34AM 62.0582 14.1506 287° West  Level Estimated
06:35AM 62.0928 13.9035 287° West  Level Estimated
06:36AM 62.1271 13.6559 287° West  Level Estimated
06:37AM 62.1608 13.4076 286° West  Level Estimated
06:38AM 62.1942 13.1589 286° West  Level Estimated
06:39AM 62.2271 12.9096 286° West  Level Estimated
06:40AM 62.2595 12.6597 286° West  Level Estimated
06:41AM 62.2915 12.4093 285° West  Level Estimated
06:42AM 62.3231 12.1584 285° West  Level Estimated
06:43AM 62.3541 11.9070 285° West  Level Estimated
06:44AM 62.3848 11.6550 285° West  Level Estimated
06:45AM 62.4150 11.4026 285° West  Level Estimated
06:46AM 62.4447 11.1496 284° West  Level Estimated
06:47AM 62.4739 10.8961 284° West  Level Estimated
06:48AM 62.5027 10.6422 284° West  Level Estimated
06:49AM 62.5311 10.3877 284° West  Level Estimated
06:50AM 62.5590 10.1328 283° West  Level Estimated
06:51AM 62.5864 9.8774 283° West  Level Estimated
06:52AM 62.6133 9.6215 283° West  Level Estimated
06:53AM 62.6398 9.3652 283° West  Level Estimated
06:54AM 62.6658 9.1084 283° West  Level Estimated
06:55AM 62.6913 8.8511 282° West  Level Estimated
06:56AM 62.7164 8.5934 282° West  Level Estimated
06:57AM 62.7410 8.3353 282° West  Level Estimated
06:58AM 62.7651 8.0768 282° West  Level Estimated
06:59AM 62.7888 7.8178 281° West  Level Estimated
07:00AM 62.8120 7.5585 281° West  Level Estimated
07:01AM 62.8346 7.2987 281° West  Level Estimated
07:02AM 62.8569 7.0385 281° West  Level Estimated
07:03AM 62.8786 6.7780 280° West  Level Estimated
07:04AM 62.8998 6.5170 280° West  Level Estimated
07:05AM 62.9206 6.2557 280° West  Level Estimated
07:06AM 62.9409 5.9940 280° West  Level Estimated
07:07AM 62.9607 5.7320 280° West  Level Estimated
07:08AM 62.9800 5.4696 279° West  Level Estimated
07:09AM 62.9988 5.2069 279° West  Level Estimated
07:10AM 63.0172 4.9438 279° West  Level Estimated
07:11AM 63.0350 4.6804 279° West  Level Estimated
07:12AM 63.0524 4.4167 278° West  Level Estimated
07:13AM 63.0692 4.1527 278° West  Level Estimated
07:14AM 63.0856 3.8883 278° West  Level Estimated
07:15AM 63.1015 3.6237 278° West  Level Estimated
07:16AM 63.1169 3.3588 277° West  Level Estimated
07:17AM 63.1318 3.0936 277° West  Level Estimated
07:18AM 63.1462 2.8282 277° West  Level Estimated
07:19AM 63.1601 2.5625 277° West  Level Estimated
07:20AM 63.1735 2.2965 276° West  Level Estimated
07:21AM 63.1864 2.0303 276° West  Level Estimated
07:22AM 63.1988 1.7639 276° West  Level Estimated
07:23AM 63.2107 1.4972 276° West  Level Estimated
07:24AM 63.2221 1.2304 276° West  Level Estimated
07:25AM 63.2331 0.9633 275° West  Level Estimated
07:26AM 63.2435 0.6960 275° West  Level Estimated
07:27AM 63.2534 0.4286 275° West  Level Estimated
07:28AM 63.2628 0.1609 275° West  Level Estimated
07:29AM 63.2717 -0.1069 274° West  Level Estimated
07:30AM 63.2801 -0.3749 274° West  Level Estimated
07:31AM 63.2880 -0.6430 274° West  Level Estimated
07:32AM 63.2954 -0.9113 274° West  Level Estimated
07:33AM 63.3023 -1.1797 273° West  Level Estimated
07:34AM 63.3087 -1.4482 273° West  Level Estimated
07:35AM 63.3145 -1.7168 273° West  Level Estimated
07:36AM 63.3199 -1.9856 273° West  Level Estimated
07:37AM 63.3248 -2.2544 272° West  Level Estimated
07:38AM 63.3291 -2.5233 272° West  Level Estimated
07:39AM 63.3330 -2.7923 272° West  Level Estimated
07:40AM 63.3363 -3.0614 272° West  Level Estimated
07:41AM 63.3392 -3.3305 271° West  Level Estimated
07:42AM 63.3415 -3.5997 271° West  Level Estimated
07:43AM 63.3434 -3.8689 271° West  Level Estimated
07:44AM 63.3447 -4.1381 271° West  Level Estimated
07:45AM 63.3455 -4.4074 271° West  Level Estimated
07:46AM 63.3458 -4.6767 270° West  Level Estimated
07:47AM 63.3456 -4.9459 270° West  Level Estimated
07:48AM 63.3449 -5.2152 270° West  Level Estimated
07:49AM 63.3437 -5.4845 270° West  Level Estimated
07:50AM 63.3419 -5.7537 269° West  Level Estimated
07:51AM 63.3397 -6.0229 269° West  Level Estimated
07:52AM 63.3370 -6.2920 269° West  Level Estimated
07:53AM 63.3337 -6.5611 269° West  Level Estimated
07:54AM 63.3300 -6.8301 268° West  Level Estimated
07:55AM 63.3257 -7.0990 268° West  Level Estimated
07:56AM 63.3210 -7.3679 268° West  Level Estimated
07:57AM 63.3157 -7.6367 268° West  Level Estimated
07:58AM 63.3099 -7.9053 267° West  Level Estimated
07:59AM 63.3036 -8.1739 267° West  Level Estimated
08:00AM 63.2968 -8.4423 267° West  Level Estimated
08:01AM 63.2896 -8.7106 267° West  Level Estimated
08:02AM 63.2818 -8.9787 266° West  Level Estimated
08:03AM 63.2735 -9.2467 266° West  Level Estimated
08:04AM 63.2647 -9.5146 266° West  Level Estimated
08:05AM 63.2554 -9.7822 266° West  Level Estimated
08:06AM 63.2456 -10.0497 265° West  Level Estimated
08:07AM 63.2352 -10.3170 265° West  Level Estimated
08:08AM 63.2244 -10.5842 265° West  Level Estimated
08:09AM 63.2131 -10.8511 265° West  Level Estimated
08:10AM 63.2013 -11.1178 265° West  Level Estimated
08:11AM 63.1890 -11.3843 264° West  Level Estimated
08:12AM 63.1762 -11.6505 264° West  Level Estimated
08:13AM 63.1629 -11.9165 264° West  Level Estimated
08:14AM 63.1491 -12.1823 264° West  Level Estimated
08:15AM 63.1348 -12.4478 263° West  Level Estimated
08:16AM 63.1200 -12.7130 263° West  Level Estimated
08:17AM 63.1047 -12.9780 263° West  Level Estimated
08:18AM 63.0889 -13.2427 263° West  Level Estimated
08:19AM 63.0727 -13.5070 262° West  Level Estimated
08:20AM 63.0559 -13.7711 262° West  Level Estimated
08:21AM 63.0386 -14.0349 262° West  Level Estimated
08:22AM 63.0209 -14.2984 262° West  Level Estimated
08:23AM 63.0026 -14.5615 261° West  Level Estimated
08:24AM 62.9839 -14.8243 261° West  Level Estimated
08:25AM 62.9647 -15.0868 261° West  Level Estimated
08:26AM 62.9450 -15.3489 261° West  Level Estimated
08:27AM 62.9248 -15.6107 260° West  Level Estimated
08:28AM 62.9041 -15.8720 260° West  Level Estimated
08:29AM 62.8830 -16.1331 260° West  Level Estimated
08:30AM 62.8614 -16.3937 260° West  Level Estimated
08:31AM 62.8393 -16.6539 260° West  Level Estimated
08:32AM 62.8167 -16.9138 259° West  Level Estimated
08:33AM 62.7936 -17.1733 259° West  Level Estimated
08:34AM 62.7701 -17.4323 259° West  Level Estimated
08:35AM 62.7460 -17.6909 259° West  Level Estimated
08:36AM 62.7215 -17.9491 258° West  Level Estimated
08:37AM 62.6966 -18.2069 258° West  Level Estimated
08:38AM 62.6711 -18.4642 258° West  Level Estimated
08:39AM 62.6452 -18.7211 258° West  Level Estimated
08:40AM 62.6188 -18.9775 257° West  Level Estimated
08:41AM 62.5920 -19.2335 257° West  Level Estimated
08:42AM 62.5647 -19.4890 257° West  Level Estimated
08:43AM 62.5369 -19.7440 257° West  Level Estimated
08:44AM 62.5086 -19.9986 257° West  Level Estimated
08:45AM 62.4799 -20.2526 256° West  Level Estimated
08:46AM 62.4507 -20.5062 256° West  Level Estimated
08:47AM 62.4211 -20.7593 256° West  Level Estimated
08:48AM 62.3910 -21.0119 256° West  Level Estimated
08:49AM 62.3605 -21.2639 255° West  Level Estimated
08:50AM 62.3295 -21.5155 255° West  Level Estimated
08:51AM 62.2980 -21.7665 255° West  Level Estimated
08:52AM 62.2661 -22.0170 255° West  Level Estimated
08:53AM 62.2338 -22.2669 255° West  Level Estimated
08:54AM 62.2010 -22.5164 254° West  Level Estimated
08:55AM 62.1677 -22.7652 254° West  Level Estimated
08:56AM 62.1340 -23.0136 254° West  Level Estimated
08:57AM 62.0999 -23.2613 254° West  Level Estimated
08:58AM 62.0653 -23.5086 253° West  Level Estimated
08:59AM 62.0303 -23.7552 253° West  Level Estimated
09:00AM 61.9949 -24.0013 253° West  Level Estimated
09:01AM 61.9590 -24.2468 253° West  Level Estimated
09:02AM 61.9226 -24.4917 253° West  Level Estimated
09:03AM 61.8859 -24.7360 252° West  Level Estimated
09:04AM 61.8487 -24.9797 252° West  Level Estimated
09:05AM 61.8110 -25.2229 252° West  Level Estimated
09:06AM 61.7730 -25.4655 252° West  Level Estimated
09:07AM 61.7345 -25.7074 252° West  Level Estimated
09:08AM 61.6956 -25.9487 251° West  Level Estimated
09:09AM 61.6562 -26.1895 251° West  Level Estimated
09:10AM 61.6165 -26.4296 251° West  Level Estimated
09:11AM 61.5763 -26.6691 251° West  Level Estimated
09:12AM 61.5357 -26.9079 250° West  Level Estimated
09:13AM 61.4947 -27.1462 250° West  Level Estimated
09:14AM 61.4533 -27.3838 250° West  Level Estimated
09:15AM 61.4115 -27.6208 250° West  Level Estimated
09:16AM 61.3692 -27.8571 250° West  Level Estimated
09:17AM 61.3266 -28.0928 249° West  Level Estimated
09:18AM 61.2835 -28.3279 249° West  Level Estimated
09:19AM 61.2401 -28.5623 249° West  Level Estimated
09:20AM 61.1962 -28.7961 249° West  Level Estimated
09:21AM 61.1519 -29.0292 249° West  Level Estimated
09:22AM 61.1073 -29.2616 248° West  Level Estimated
09:23AM 61.0622 -29.4934 248° West  Level Estimated
09:24AM 61.0167 -29.7245 248° West  Level Estimated
09:25AM 60.9709 -29.9550 248° West  Level Estimated
09:26AM 60.9246 -30.1848 248° West  Level Estimated
09:27AM 60.8780 -30.4139 247° West  Level Estimated
09:28AM 60.8310 -30.6424 247° West  Level Estimated
09:29AM 60.7835 -30.8702 247° West  Level Estimated
09:30AM 60.7357 -31.0973 247° West  Level Estimated
09:31AM 60.6876 -31.3237 247° West  Level Estimated
09:32AM 60.6390 -31.5495 246° West  Level Estimated
09:33AM 60.5901 -31.7745 246° West  Level Estimated
09:34AM 60.5407 -31.9989 246° West  Level Estimated
09:35AM 60.4911 -32.2226 246° West  Level Estimated
09:36AM 60.4410 -32.4457 246° West  Level Estimated
09:37AM 60.3905 -32.6680 245° Southwest  Level Estimated
09:38AM 60.3397 -32.8896 245° Southwest  Level Estimated
09:39AM 60.2886 -33.1106 245° Southwest  Level Estimated
09:40AM 60.2370 -33.3308 245° Southwest  Level Estimated
09:41AM 60.1851 -33.5504 245° Southwest  Level Estimated
09:42AM 60.1328 -33.7692 244° Southwest  Level Estimated
09:43AM 60.0802 -33.9874 244° Southwest  Level Estimated
09:44AM 60.0272 -34.2049 244° Southwest  Level Estimated
09:45AM 59.9739 -34.4217 244° Southwest  Level Estimated
09:46AM 59.9202 -34.6377 244° Southwest  Level Estimated
09:47AM 59.8661 -34.8531 244° Southwest  Level Estimated
09:48AM 59.8117 -35.0678 243° Southwest  Level Estimated
09:49AM 59.7570 -35.2817 243° Southwest  Level Estimated
09:50AM 59.7019 -35.4950 243° Southwest  Level Estimated
09:51AM 59.6465 -35.7076 243° Southwest  Level Estimated
09:52AM 59.5907 -35.9194 243° Southwest  Level Estimated
09:53AM 59.5345 -36.1306 242° Southwest  Level Estimated
09:54AM 59.4781 -36.3410 242° Southwest  Level Estimated
09:55AM 59.4213 -36.5508 242° Southwest  Level Estimated
09:56AM 59.3642 -36.7598 242° Southwest  Level Estimated
09:57AM 59.3067 -36.9682 242° Southwest  Level Estimated
09:58AM 59.2489 -37.1758 242° Southwest  Level Estimated
09:59AM 59.1908 -37.3827 241° Southwest  Level Estimated
10:00AM 59.1323 -37.5889 241° Southwest  Level Estimated
10:01AM 59.0735 -37.7944 241° Southwest  Level Estimated
10:02AM 59.0144 -37.9993 241° Southwest  Level Estimated
10:03AM 58.9550 -38.2034 241° Southwest  Level Estimated
10:04AM 58.8952 -38.4068 240° Southwest  Level Estimated
10:05AM 58.8352 -38.6095 240° Southwest  Level Estimated
10:06AM 58.7748 -38.8115 240° Southwest  Level Estimated
10:07AM 58.7141 -39.0128 240° Southwest  Level Estimated
10:08AM 58.6531 -39.2133 240° Southwest  Level Estimated
10:09AM 58.5918 -39.4132 240° Southwest  Level Estimated
10:10AM 58.5302 -39.6124 239° Southwest  Level Estimated
10:11AM 58.4682 -39.8109 239° Southwest  Level Estimated
10:12AM 58.4060 -40.0087 239° Southwest  Level Estimated
10:13AM 58.3434 -40.2058 239° Southwest  Level Estimated
10:14AM 58.2806 -40.4022 239° Southwest  Level Estimated
10:15AM 58.2174 -40.5979 239° Southwest  Level Estimated
10:16AM 58.1540 -40.7929 238° Southwest  Level Estimated
10:17AM 58.0903 -40.9872 238° Southwest  Level Estimated
10:18AM 58.0262 -41.1808 238° Southwest  Level Estimated
10:19AM 57.9619 -41.3737 238° Southwest  Level Estimated
10:20AM 57.8973 -41.5659 238° Southwest  Level Estimated
10:21AM 57.8324 -41.7575 238° Southwest  Level Estimated
10:22AM 57.7672 -41.9483 237° Southwest  Level Estimated
10:23AM 57.7017 -42.1384 237° Southwest  Level Estimated
10:24AM 57.6359 -42.3279 237° Southwest  Level Estimated
10:25AM 57.5699 -42.5167 237° Southwest  Level Estimated
10:26AM 57.5036 -42.7048 237° Southwest  Level Estimated
10:27AM 57.4369 -42.8922 237° Southwest  Level Estimated
10:28AM 57.3701 -43.0789 236° Southwest  Level Estimated
10:29AM 57.3029 -43.2649 236° Southwest  Level Estimated
10:30AM 57.2355 -43.4503 236° Southwest  Level Estimated
10:31AM 57.1678 -43.6350 236° Southwest  Level Estimated
10:32AM 57.0998 -43.8190 236° Southwest  Level Estimated
10:33AM 57.0316 -44.0023 236° Southwest  Level Estimated
10:34AM 56.9631 -44.1850 236° Southwest  Level Estimated
10:35AM 56.8943 -44.3670 235° Southwest  Level Estimated
10:36AM 56.8252 -44.5483 235° Southwest  Level Estimated
10:37AM 56.7559 -44.7290 235° Southwest  Level Estimated
10:38AM 56.6864 -44.9089 235° Southwest  Level Estimated
10:39AM 56.6166 -45.0882 235° Southwest  Level Estimated
10:40AM 56.5465 -45.2669 235° Southwest  Level Estimated
10:41AM 56.4761 -45.4449 234° Southwest  Level Estimated
10:42AM 56.4055 -45.6222 234° Southwest  Level Estimated
10:43AM 56.3347 -45.7989 234° Southwest  Level Estimated
10:44AM 56.2636 -45.9749 234° Southwest  Level Estimated
10:45AM 56.1923 -46.1503 234° Southwest  Level Estimated
10:46AM 56.1207 -46.3250 234° Southwest  Level Estimated
10:47AM 56.0489 -46.4991 234° Southwest  Level Estimated
10:48AM 55.9768 -46.6725 233° Southwest  Level Estimated
10:49AM 55.9045 -46.8453 233° Southwest  Level Estimated
10:50AM 55.8319 -47.0174 233° Southwest  Level Estimated
10:51AM 55.7591 -47.1889 233° Southwest  Level Estimated
10:52AM 55.6861 -47.3597 233° Southwest  Level Estimated
10:53AM 55.6128 -47.5299 233° Southwest  Level Estimated
10:54AM 55.5393 -47.6995 233° Southwest  Level Estimated
10:55AM 55.4656 -47.8684 232° Southwest  Level Estimated
10:56AM 55.3916 -48.0367 232° Southwest  Level Estimated
10:57AM 55.3174 -48.2044 232° Southwest  Level Estimated
10:58AM 55.2430 -48.3715 232° Southwest  Level Estimated
10:59AM 55.1683 -48.5379 232° Southwest  Level Estimated
11:00AM 55.0934 -48.7037 232° Southwest  Level Estimated
11:01AM 55.0183 -48.8689 232° Southwest  Level Estimated
11:02AM 54.9430 -49.0334 231° Southwest  Level Estimated
11:03AM 54.8674 -49.1974 231° Southwest  Level Estimated
11:04AM 54.7917 -49.3607 231° Southwest  Level Estimated
11:05AM 54.7157 -49.5234 231° Southwest  Level Estimated
11:06AM 54.6395 -49.6855 231° Southwest  Level Estimated
11:06AM 62.0000 -50.0000 236° Southwest 431 496 35,000  Level ETMS Enhanced Traffic Management System
11:24AM 59.2000 -57.3833 228° Southwest 440 506 35,000  Level Gander Center
11:25AM 59.1386 -57.5260 229° Southwest 431 496 35,000  Level FlightAware Transoceanic
11:25AM 59.1000 -57.5500 221° Southwest 440 506 35,000  Level Gander Center
11:26AM 59.0600 -57.7019 229° Southwest 431 496 35,000  Level FlightAware Transoceanic
11:26AM 59.0333 -57.7500 237° Southwest 440 506 35,000  Level Gander Center
11:27AM 58.9811 -57.8770 229° Southwest 431 496 35,000  Level FlightAware Transoceanic
11:27AM 58.9667 -57.9167 232° Southwest 440 506 35,000  Level Gander Center
11:28AM 58.9020 -58.0513 229° Southwest 431 496 35,000  Level FlightAware Transoceanic
11:28AM 58.8667 -58.1000 224° Southwest 440 506 35,000  Level Gander Center
11:29AM 58.8226 -58.2248 228° Southwest 431 496 35,000  Level FlightAware Transoceanic
11:29AM 58.7833 -58.3000 231° Southwest 440 506 35,000  Level Gander Center
11:30AM 58.7000 -58.4667 226° Southwest 440 506 35,000  Level Gander Center
11:31AM 58.6167 -58.5667 212° Southwest 430 495 35,000  Level Gander Center
11:32AM 58.5167 -58.7000 215° Southwest 430 495 35,000  Level Gander Center
11:33AM 58.4000 -58.8000 204° Southwest 430 495 35,000  Level Gander Center
11:34AM 58.3000 -58.9000 208° Southwest 430 495 35,000  Level Gander Center
11:35AM 58.1833 -59.0333 211° Southwest 430 495 35,000  Level Gander Center
11:36AM 58.0833 -59.1333 208° Southwest 430 495 35,000  Level Gander Center
11:37AM 57.9667 -59.2333 204° Southwest 430 495 35,000  Level Gander Center
11:38AM 57.8667 -59.3667 215° Southwest 430 495 35,000  Level Gander Center
11:39AM 57.7500 -59.4667 205° Southwest 430 495 35,000  Level Gander Center
11:40AM 57.6667 -59.6000 221° Southwest 430 495 35,000  Level Gander Center
11:41AM 57.5667 -59.7000 208° Southwest 440 506 35,000  Level Gander Center
11:42AM 57.4500 -59.8000 205° Southwest 440 506 35,000  Level Gander Center
11:43AM 57.3500 -59.9167 212° Southwest 430 495 35,000  Level Gander Center
11:44AM 57.2333 -60.0167 205° Southwest 430 495 35,000  Level Gander Center
11:45AM 57.1333 -60.1500 216° Southwest 440 506 35,000  Level Gander Center
11:46AM 57.0167 -60.2333 201° Southwest 430 495 35,000  Level Gander Center
11:47AM 56.9167 -60.3333 209° Southwest 440 506 35,000  Level Gander Center
11:48AM 56.8000 -60.4667 212° Southwest 430 495 35,000  Level Gander Center
11:49AM 56.7000 -60.5500 205° Southwest 410 472 35,000  Level Gander Center
11:50AM 56.6000 -60.6500 209° Southwest 440 506 35,000  Level Gander Center
11:51AM 56.5000 -60.7667 213° Southwest 430 495 35,000  Level Gander Center
11:52AM 56.3833 -60.8667 205° Southwest 430 495 35,000  Level Gander Center
11:53AM 56.2833 -60.9500 205° Southwest 430 495 35,000  Level Gander Center
11:54AM 56.1667 -61.0667 209° Southwest 430 495 35,000  Level Gander Center
11:55AM 56.0667 -61.1667 209° Southwest 430 495 35,000  Level Gander Center
11:56AM 55.9667 -61.2500 205° Southwest 430 495 35,000  Level Gander Center
11:57AM 55.8500 -61.3667 209° Southwest 430 495 35,000  Level Gander Center
11:58AM 55.7500 -61.4667 209° Southwest 430 495 35,000  Level Gander Center
11:59AM 55.6333 -61.5833 209° Southwest 430 495 35,000  Level Gander Center
12:00PM 55.5333 -61.6667 205° Southwest 430 495 35,000  Level Gander Center
12:01PM 55.4333 -61.7500 205° Southwest 430 495 35,000  Level Gander Center
12:02PM 55.3167 -61.8333 202° Southwest 430 495 35,000  Level Gander Center
12:03PM 55.2167 -61.9500 214° Southwest 430 495 35,000  Level Gander Center
12:04PM 55.1000 -62.0333 202° Southwest 430 495 35,000  Level Gander Center
12:05PM 55.0000 -62.1333 210° Southwest 430 495 35,000  Level Gander Center
12:06PM 54.9000 -62.2333 210° Southwest 430 495 35,000  Level Gander Center
12:07PM 54.7833 -62.3333 206° Southwest 430 495 35,000  Level Gander Center
12:08PM 54.6833 -62.4167 206° Southwest 430 495 35,000  Level Gander Center
12:09PM 54.5833 -62.5167 210° Southwest 430 495 35,000  Level Gander Center
12:10PM 54.4833 -62.6000 206° Southwest 430 495 35,000  Level Gander Center
12:11PM 54.3500 -62.6833 200° South 430 495 35,000  Level Gander Center
12:12PM 54.2500 -62.8000 214° Southwest 430 495 35,000 480 Level Gander Center
12:13PM 54.1333 -62.8833 203° Southwest 440 506 36,000 480 Climbing Gander Center
12:14PM 54.0333 -62.9667 206° Southwest 440 506 36,000  Level Gander Center
12:15PM 53.9167 -63.0667 207° Southwest 430 495 36,000  Level Gander Center
12:16PM 53.8167 -63.1500 206° Southwest 440 506 36,000  Level Gander Center
12:17PM 53.7167 -63.2333 206° Southwest 430 495 36,000  Level Gander Center
12:18PM 53.6000 -63.3333 207° Southwest 440 506 36,000  Level Gander Center
12:19PM 53.4833 -63.4167 203° Southwest 430 495 36,000  Level Gander Center
12:20PM 53.3667 -63.5167 207° Southwest 440 506 36,000  Level Gander Center
12:21PM 53.2500 -63.6000 203° Southwest 440 506 36,000  Level Gander Center
12:22PM 53.1500 -63.7000 211° Southwest 450 518 36,000  Level Gander Center
12:23PM 53.0333 -63.7833 203° Southwest 450 518 36,000  Level Gander Center
12:24PM 52.9333 -63.8667 207° Southwest 450 518 36,000  Level Gander Center
12:25PM 52.8167 -63.9667 207° Southwest 450 518 36,000  Level Gander Center
12:26PM 52.7000 -64.0333 199° South 450 518 36,000  Level Gander Center
12:27PM 52.6000 -64.1500 215° Southwest 450 518 36,000  Level Gander Center
12:28PM 52.4667 -64.2167 197° South 450 518 36,000  Level Gander Center
12:29PM 52.3500 -64.3167 208° Southwest 440 506 36,000  Level Gander Center
12:30PM 52.2667 -64.4000 211° Southwest 440 506 36,000  Level Moncton Center
12:31PM 52.1500 -64.4833 204° Southwest 450 518 36,000  Level Moncton Center
12:32PM 52.0333 -64.5667 204° Southwest 440 506 36,000  Level Moncton Center
12:33PM 51.9333 -64.6333 202° Southwest 450 518 36,000  Level Moncton Center
12:34PM 51.8167 -64.7167 204° Southwest 450 518 36,000  Level Moncton Center
12:35PM 51.7000 -64.8333 212° Southwest 450 518 36,000  Level Moncton Center
12:36PM 51.5833 -64.9167 204° Southwest 450 518 36,000  Level Moncton Center
12:37PM 51.4667 -64.9833 200° South 450 518 36,000  Level Moncton Center
12:38PM 51.3667 -65.0667 207° Southwest 450 518 36,000  Level Moncton Center
12:39PM 51.2333 -65.1500 201° Southwest 460 529 36,000  Level Moncton Center
12:40PM 51.1333 -65.2167 203° Southwest 460 529 36,000  Level Moncton Center
12:41PM 51.0167 -65.3333 212° Southwest 460 529 36,000  Level Moncton Center
12:42PM 50.9000 -65.4000 200° South 460 529 36,000  Level Moncton Center
12:43PM 50.7667 -65.4833 202° Southwest 460 529 36,000  Level Moncton Center
12:44PM 50.6500 -65.5667 204° Southwest 460 529 36,000  Level Moncton Center
12:45PM 50.5333 -65.6667 209° Southwest 460 529 36,000  Level Moncton Center
12:46PM 50.4167 -65.7333 200° South 460 529 36,000  Level Moncton Center
12:47PM 50.3000 -65.8167 205° Southwest 460 529 36,000  Level Moncton Center
12:48PM 50.1833 -65.8833 200° South 460 529 36,000  Level Moncton Center
12:49PM 50.0667 -65.9833 209° Southwest 460 529 36,000  Level Moncton Center
12:50PM 49.9500 -66.0667 205° Southwest 460 529 36,000  Level Moncton Center
12:51PM 49.8333 -66.1333 200° South 460 529 36,000  Level Moncton Center
12:52PM 49.7333 -66.2167 208° Southwest 460 529 36,000  Level Moncton Center
12:53PM 49.6167 -66.2833 200° South 460 529 36,000  Level Moncton Center
12:54PM 49.4667 -66.3833 203° Southwest 460 529 36,000  Level Moncton Center
12:55PM 49.3667 -66.4500 203° Southwest 460 529 36,000  Level Moncton Center
12:56PM 49.2333 -66.5333 202° Southwest 460 529 36,000  Level Moncton Center
12:57PM 49.1333 -66.6000 204° Southwest 460 529 36,000  Level Moncton Center
12:58PM 49.0167 -66.7000 209° Southwest 460 529 36,000  Level Moncton Center
12:59PM 48.9000 -66.7667 201° Southwest 470 541 36,000  Level Moncton Center
01:00PM 48.7833 -66.8333 201° Southwest 470 541 36,000  Level Moncton Center
01:01PM 48.6500 -66.9333 206° Southwest 470 541 36,000  Level Moncton Center
01:02PM 48.5167 -67.0000 198° South 470 541 36,000  Level Moncton Center
01:03PM 48.4000 -67.0667 201° Southwest 470 541 36,000  Level Moncton Center
01:04PM 48.2833 -67.1333 201° Southwest 470 541 36,000  Level Moncton Center
01:05PM 48.1667 -67.2333 210° Southwest 470 541 36,000  Level Moncton Center
01:06PM 48.0500 -67.3000 201° Southwest 470 541 36,000  Level Moncton Center
01:12PM 47.3735 -67.8385 201° Southwest 474 545 36,000  Level FlightAware ADS-B (CYSG)
01:13PM 47.2778 -67.9208 210° Southwest 473 544 36,000  Level FlightAware ADS-B (CYSG)
01:13PM 47.2104 -67.9783 210° Southwest 475 547 36,000  Level FlightAware ADS-B (CYSG)
01:14PM 47.1279 -68.0488 210° Southwest 476 548 36,000  Level FlightAware ADS-B (CYSG)
01:14PM 47.0672 -68.1003 210° Southwest 477 549 36,000  Level FlightAware ADS-B (CYSG)
01:15PM 47.0199 -68.1404 210° Southwest 479 551 36,000  Level FlightAware ADS-B (CYSG)
01:16PM 46.9375 -68.2102 210° Southwest 478 550 36,000  Level FlightAware ADS-B (CYSG)
01:16PM 46.8753 -68.2626 210° Southwest 476 548 36,000  Level FlightAware ADS-B (CYSG)
01:17PM 46.7992 -68.3265 210° Southwest 476 548 36,000  Level FlightAware ADS-B (CYSG)
01:17PM 46.7255 -68.3883 210° Southwest 478 550 36,000  Level FlightAware ADS-B (CYSG)
01:18PM 46.6739 -68.4314 210° Southwest 480 552 36,000  Level FlightAware ADS-B (CYSG)
01:19PM 46.5873 -68.5034 210° Southwest 478 550 36,000  Level FlightAware ADS-B (CYSG)
01:19PM 46.5094 -68.5679 210° Southwest 476 548 36,000  Level FlightAware ADS-B (CYSG)
01:20PM 46.4525 -68.6149 210° Southwest 475 547 36,000  Level FlightAware ADS-B (CYSG)
01:20PM 46.3779 -68.6764 210° Southwest 478 550 36,000  Level FlightAware ADS-B (CYSG)
01:21PM 46.3179 -68.7258 210° Southwest 475 547 36,000  Level FlightAware ADS-B (CYSG)
01:22PM 46.2455 -68.7852 210° Southwest 477 549 36,000  Level FlightAware ADS-B (CYSG)
01:22PM 46.1865 -68.8336 210° Southwest 479 551 36,000  Level FlightAware ADS-B (CYSG)
01:23PM 46.1269 -68.8821 209° Southwest 478 550 36,000  Level FlightAware ADS-B (CYSG)
01:23PM 46.0684 -68.9297 209° Southwest 478 550 36,000  Level FlightAware ADS-B (CYSG)
01:24PM 46.0088 -68.9780 209° Southwest 479 551 36,000  Level FlightAware ADS-B (CYSG)
01:24PM 45.9506 -69.0252 209° Southwest 483 556 36,000  Level FlightAware ADS-B (CYSG)
01:25PM 45.8721 -69.0885 209° Southwest 484 557 36,000  Level FlightAware ADS-B (CYSG)
01:25PM 45.7935 -69.1518 209° Southwest 483 556 36,000  Level FlightAware ADS-B (CYSG)
01:26PM 45.7435 -69.1918 209° Southwest 477 549 36,000  Level FlightAware ADS-B (CYSG)
01:27PM 45.6618 -69.2571 209° Southwest 475 547 36,000  Level FlightAware ADS-B (CYSG)
01:27PM 45.5892 -69.3151 209° Southwest 475 547 36,000  Level FlightAware ADS-B (KBGR)
01:28PM 45.5251 -69.3662 209° Southwest 477 549 36,000  Level FlightAware ADS-B (CYSG)
01:28PM 45.4666 -69.4126 209° Southwest 479 551 36,000  Level FlightAware ADS-B (CYSG)
01:29PM 45.4075 -69.4594 209° Southwest 479 551 36,000  Level FlightAware ADS-B (CYSG)
01:29PM 45.3490 -69.5056 209° Southwest 478 550 36,000  Level FlightAware ADS-B (CYSG)
01:30PM 45.2839 -69.5567 209° Southwest 478 550 36,000  Level FlightAware ADS-B (CYQI)
01:30PM 45.2140 -69.6117 209° Southwest 481 554 36,000  Level FlightAware ADS-B (CYSG)
01:31PM 45.1775 -69.6402 209° Southwest 483 556 36,000  Level FlightAware ADS-B (CYQI)
01:32PM 45.0769 -69.7189 209° Southwest 480 552 36,000  Level FlightAware ADS-B (CYSG)
01:32PM 45.0266 -69.7581 209° Southwest 478 550 36,000  Level FlightAware ADS-B (CYQI)
01:33PM 44.9845 -69.7908 209° Southwest 476 548 36,000  Level FlightAware ADS-B (KBGR)
01:33PM 44.8989 -69.8574 209° Southwest 479 551 36,000  Level FlightAware ADS-B (CYQI)
01:34PM 44.8268 -69.9130 209° Southwest 475 547 36,000  Level FlightAware ADS-B (CYSG)
01:34PM 44.7671 -69.9591 209° Southwest 473 544 36,000  Level FlightAware ADS-B (CYSG)
01:35PM 44.7095 -70.0034 209° Southwest 472 543 36,000  Level FlightAware ADS-B (CYSG)
01:35PM 44.6517 -70.0478 209° Southwest 475 547 36,000  Level FlightAware ADS-B (CYSG)
01:36PM 44.5829 -70.1006 209° Southwest 478 550 36,000  Level FlightAware ADS-B (CYQI)
01:37PM 44.5547 -70.1221 209° Southwest 472 543 36,000  Level FlightAware ADS-B (CYQI)
01:37PM 44.4692 -70.1871 208° Southwest 470 541 36,000  Level FlightAware ADS-B (CYQI)
01:38PM 44.3734 -70.2601 209° Southwest 477 549 36,000  Level FlightAware ADS-B (CYQI)
01:38PM 44.3161 -70.3036 209° Southwest 476 548 36,000  Level FlightAware ADS-B (CYQI)
01:39PM 44.2516 -70.3522 208° Southwest 477 549 36,000  Level FlightAware ADS-B (KBOS)
01:39PM 44.1845 -70.4028 208° Southwest 480 552 36,000  Level FlightAware ADS-B (KBOS)
01:40PM 44.1315 -70.4426 208° Southwest 477 549 36,000  Level FlightAware ADS-B (KBOS)
01:40PM 44.1001 -70.4662 208° Southwest 478 550 36,000  Level FlightAware ADS-B (CYQI)
01:41PM 44.0072 -70.5357 208° Southwest 476 548 36,000  Level FlightAware ADS-B (KBOS)
01:41PM 43.9380 -70.5875 208° Southwest 474 545 36,000  Level FlightAware ADS-B
01:42PM 43.8719 -70.6368 208° Southwest 487 560 36,000  Level FlightAware ADS-B (KBOS)
01:43PM 43.8071 -70.6848 208° Southwest 488 562 36,000  Level FlightAware ADS-B (KBOS)
01:43PM 43.7554 -70.7231 208° Southwest 479 551 36,000  Level FlightAware ADS-B
01:43PM 43.7357 -70.7376 208° Southwest 476 548 36,000  Level FlightAware ADS-B
01:43PM 43.7168 -70.7516 208° Southwest 475 547 36,000  Level FlightAware ADS-B
01:43PM 43.6989 -70.7648 208° Southwest 474 545 36,000  Level FlightAware ADS-B
01:44PM 43.6813 -70.7779 208° Southwest 474 545 36,000  Level FlightAware ADS-B
01:44PM 43.6550 -70.7970 208° Southwest 484 557 36,000  Level FlightAware ADS-B
01:44PM 43.6183 -70.8244 208° Southwest 479 551 36,000  Level FlightAware ADS-B
01:44PM 43.5970 -70.8400 208° Southwest 489 563 36,000  Level FlightAware ADS-B
01:45PM 43.5589 -70.8683 208° Southwest 490 564 36,000  Level FlightAware ADS-B
01:45PM 43.5002 -70.9111 208° Southwest 476 548 36,000  Level FlightAware ADS-B
01:46PM 43.4500 -70.9480 208° Southwest 486 559 36,000  Level FlightAware ADS-B
01:46PM 43.4412 -70.9543 207° Southwest 477 549 36,000  Level FlightAware ADS-B
01:46PM 43.3860 -70.9950 208° Southwest 480 552 36,000  Level FlightAware ADS-B
01:46PM 43.3701 -71.0064 207° Southwest 480 552 36,000  Level FlightAware ADS-B (KBOS)
01:47PM 43.3022 -71.0559 208° Southwest 477 549 36,000  Level FlightAware ADS-B
01:47PM 43.2335 -71.1060 208° Southwest 474 545 36,000  Level FlightAware ADS-B
01:48PM 43.1684 -71.1529 208° Southwest 470 541 36,000  Level FlightAware ADS-B
01:48PM 43.1105 -71.1949 208° Southwest 466 536 36,000  Level FlightAware ADS-B
01:49PM 43.0491 -71.2391 208° Southwest 454 522 36,000  Level FlightAware ADS-B
01:50PM 42.9925 -71.2799 208° Southwest 459 528 36,000  Level FlightAware ADS-B (KBOS)
01:50PM 42.9366 -71.3201 208° Southwest 458 527 36,000  Level FlightAware ADS-B
01:51PM 42.8717 -71.3667 208° Southwest 455 524 36,000  Level FlightAware ADS-B (KBOS)
01:51PM 42.8041 -71.4151 208° Southwest 459 528 36,000  Level FlightAware ADS-B
01:52PM 42.7477 -71.4555 208° Southwest 454 522 36,000  Level FlightAware ADS-B
01:52PM 42.6918 -71.4952 208° Southwest 455 524 36,000  Level FlightAware ADS-B
01:53PM 42.6249 -71.5428 208° Southwest 461 531 36,000  Level FlightAware ADS-B
01:53PM 42.5680 -71.5832 208° Southwest 464 534 36,000  Level FlightAware ADS-B (KBOS)
01:54PM 42.5056 -71.6274 208° Southwest 471 542 36,000  Level FlightAware ADS-B (KBOS)
01:54PM 42.4287 -71.6816 208° Southwest 475 547 36,000  Level FlightAware ADS-B (KBOS)
01:55PM 42.3616 -71.7289 207° Southwest 475 547 36,000  Level FlightAware ADS-B
01:56PM 42.3052 -71.7684 207° Southwest 474 545 36,000  Level FlightAware ADS-B
01:56PM 42.2434 -71.8118 207° Southwest 475 547 36,000  Level FlightAware ADS-B
01:56PM 42.2086 -71.8360 207° Southwest 475 547 36,000  Level FlightAware ADS-B
01:57PM 42.1494 -71.8774 207° Southwest 472 543 36,000  Level FlightAware ADS-B (KSNC)
01:58PM 42.0700 -71.9327 207° Southwest 473 544 36,000  Level FlightAware ADS-B
01:58PM 42.0079 -71.9760 207° Southwest 474 545 36,000  Level FlightAware ADS-B
01:59PM 41.9512 -72.0152 207° Southwest 475 547 36,000  Level FlightAware ADS-B
01:59PM 41.8897 -72.0578 207° Southwest 475 547 36,000  Level FlightAware ADS-B
02:00PM 41.8315 -72.0979 207° Southwest 474 545 36,000  Level FlightAware ADS-B (ZSSL)
02:00PM 41.7667 -72.1426 207° Southwest 474 545 36,000  Level FlightAware ADS-B (KSNC)
02:01PM 41.7081 -72.1829 207° Southwest 474 545 36,000  Level FlightAware ADS-B (KSNC)
02:01PM 41.6280 -72.2378 207° Southwest 473 544 36,000  Level FlightAware ADS-B (KSNC)
02:02PM 41.5653 -72.2807 207° Southwest 473 544 36,000  Level FlightAware ADS-B (KSNC)
02:02PM 41.4992 -72.3259 207° Southwest 474 545 36,000  Level FlightAware ADS-B
02:03PM 41.4413 -72.3653 207° Southwest 474 545 36,000  Level FlightAware ADS-B
02:04PM 41.3656 -72.4168 207° Southwest 474 545 36,000  Level FlightAware ADS-B (KSNC)
02:04PM 41.3072 -72.4563 207° Southwest 475 547 36,000  Level FlightAware ADS-B
02:05PM 41.2364 -72.5041 207° Southwest 473 544 36,000  Level FlightAware ADS-B
02:05PM 41.1680 -72.5503 207° Southwest 471 542 36,000  Level FlightAware ADS-B (KSNC)
02:06PM 41.1055 -72.5924 207° Southwest 471 542 36,000  Level FlightAware ADS-B
02:06PM 41.0413 -72.6355 207° Southwest 470 541 36,000  Level FlightAware ADS-B (KSNC)
02:07PM 40.9724 -72.6817 207° Southwest 469 540 36,000  Level FlightAware ADS-B (KSNC)
02:08PM 40.8944 -72.7339 207° Southwest 470 541 36,000  Level FlightAware ADS-B (KSNC)
02:08PM 40.8380 -72.7724 207° Southwest 465 535 36,000  Level FlightAware ADS-B (KSNC)
02:09PM 40.7851 -72.8231 216° Southwest 456 525 36,000  Level FlightAware ADS-B (KSNC)
02:09PM 40.7357 -72.8737 218° Southwest 456 525 36,000  Level FlightAware ADS-B (KSNC)
02:10PM 40.6770 -72.9334 218° Southwest 453 521 36,000  Level FlightAware ADS-B (KSNC)
02:10PM 40.6317 -72.9793 218° Southwest 452 520 36,000  Level FlightAware ADS-B (KSNC)
02:11PM 40.5674 -73.0443 218° Southwest 452 520 36,000  Level FlightAware ADS-B (KWWD)
02:11PM 40.5187 -73.0935 217° Southwest 452 520 36,000  Level FlightAware ADS-B (KSNC)
02:12PM 40.4449 -73.1677 217° Southwest 450 518 36,000  Level FlightAware ADS-B (KWWD)
02:13PM 40.3880 -73.2248 217° Southwest 450 518 36,000  Level FlightAware ADS-B (KSNC)
02:13PM 40.3532 -73.2598 217° Southwest 450 518 36,000  Level FlightAware ADS-B (KSNC)
02:13PM 40.3047 -73.3085 217° Southwest 449 517 36,000  Level FlightAware ADS-B (KPVU)
02:14PM 40.2250 -73.3881 217° Southwest 447 514 36,000  Level FlightAware ADS-B (KSNC)
02:15PM 40.1642 -73.4486 217° Southwest 445 512 36,000  Level FlightAware ADS-B (KSNC)
02:15PM 40.1161 -73.4964 217° Southwest 445 512 36,000  Level FlightAware ADS-B (KSNC)
02:16PM 40.0633 -73.5487 217° Southwest 445 512 36,000  Level FlightAware ADS-B (KWWD)
02:16PM 40.0133 -73.5981 217° Southwest 445 512 36,000  Level FlightAware ADS-B (KWWD)
02:17PM 39.9659 -73.6448 217° Southwest 442 509 36,000  Level FlightAware ADS-B (KPVU)
02:17PM 39.9117 -73.6984 217° Southwest 439 505 36,000  Level FlightAware ADS-B (KSNC)
02:18PM 39.8717 -73.7377 217° Southwest 436 502 36,000  Level FlightAware ADS-B (KPVU)
02:18PM 39.8364 -73.7724 217° Southwest 436 502 36,000  Level FlightAware ADS-B (KPVU)
02:19PM 39.7787 -73.8289 217° Southwest 437 503 36,000  Level FlightAware ADS-B (KSNC)
02:19PM 39.7598 -73.8474 217° Southwest 431 496 36,000  Level FlightAware ADS-B (KWWD)
02:19PM 39.7443 -73.8627 217° Southwest 431 496 36,000  Level FlightAware ADS-B (KWWD)
02:19PM 39.7402 -73.8667 217° Southwest 438 504 36,000  Level FlightAware ADS-B (KSNC)
02:20PM 39.6801 -73.9253 217° Southwest 440 506 36,000  Level FlightAware ADS-B (KWWD)
02:20PM 39.6236 -73.9805 217° Southwest 441 507 36,000  Level FlightAware ADS-B (KSNC)
02:21PM 39.5731 -74.0296 217° Southwest 438 504 36,000  Level FlightAware ADS-B (KPVU)
02:21PM 39.5447 -74.0572 217° Southwest 438 504 36,000  Level FlightAware ADS-B (KPVU)
02:22PM 39.4930 -74.1074 217° Southwest 430 495 36,000  Level FlightAware ADS-B (KWWD)
02:22PM 39.4301 -74.1683 217° Southwest 429 494 36,000  Level FlightAware ADS-B (KWWD)
02:23PM 39.3807 -74.2160 217° Southwest 427 491 36,000  Level FlightAware ADS-B (KWWD)
02:24PM 39.3217 -74.2728 217° Southwest 424 488 36,000  Level FlightAware ADS-B (KWWD)
02:24PM 39.2691 -74.3234 217° Southwest 423 487 36,000  Level FlightAware ADS-B (KWWD)
02:25PM 39.2071 -74.3760 213° Southwest 434 499 36,000  Level FlightAware ADS-B (KWWD)
02:25PM 39.2007 -74.3811 212° Southwest 435 501 36,000  Level FlightAware ADS-B (KPVU)
02:25PM 39.1369 -74.4317 212° Southwest 433 498 36,000  Level FlightAware ADS-B (KWWD)
02:26PM 39.1023 -74.4597 212° Southwest 432 497 36,000  Level FlightAware ADS-B (KPVU)
02:26PM 39.0498 -74.5022 212° Southwest 423 487 36,000  Level FlightAware ADS-B (KWWD)
02:27PM 38.9908 -74.5502 212° Southwest 428 493 36,000  Level FlightAware ADS-B (KPVU)
02:28PM 38.9246 -74.6039 212° Southwest 423 487 36,000  Level FlightAware ADS-B (KWWD)
02:28PM 38.8935 -74.6292 212° Southwest 431 496 36,000  Level FlightAware ADS-B (KSBY)
02:28PM 38.8400 -74.6727 212° Southwest 424 488 36,000  Level FlightAware ADS-B (KWWD)
02:29PM 38.7547 -74.7418 212° Southwest 432 497 36,000  Level FlightAware ADS-B (KSBY)
02:30PM 38.7157 -74.7732 212° Southwest 433 498 36,000  Level FlightAware ADS-B
02:31PM 38.6171 -74.8525 212° Southwest 433 498 36,000  Level FlightAware ADS-B (KSBY)
02:31PM 38.5959 -74.8695 212° Southwest 426 490 36,000  Level FlightAware ADS-B (KWWD)
02:31PM 38.5894 -74.8747 212° Southwest 426 490 36,000  Level FlightAware ADS-B (KWWD)
02:32PM 38.5194 -74.9308 212° Southwest 431 496 36,000  Level FlightAware ADS-B (KSBY)
02:32PM 38.4712 -74.9693 212° Southwest 431 496 36,000  Level FlightAware ADS-B (KSBY)
02:32PM 38.4355 -74.9979 212° Southwest 424 488 36,000  Level FlightAware ADS-B (KWWD)
02:33PM 38.4020 -75.0246 212° Southwest 426 490 36,000  Level FlightAware ADS-B (KWWD)
02:33PM 38.3459 -75.0693 212° Southwest 433 498 36,000  Level FlightAware ADS-B (KSBY)
02:34PM 38.2932 -75.1113 212° Southwest 435 501 36,000  Level FlightAware ADS-B (KWWD)
02:34PM 38.2344 -75.1580 212° Southwest 433 498 36,000  Level FlightAware ADS-B (KSBY)
02:35PM 38.1960 -75.1884 212° Southwest 425 489 36,000  Level FlightAware ADS-B (KWWD)
02:35PM 38.1459 -75.2280 212° Southwest 430 495 36,000  Level FlightAware ADS-B (KSBY)
02:35PM 38.1283 -75.2420 212° Southwest 422 486 36,000  Level FlightAware ADS-B (KWWD)
02:36PM 38.0896 -75.2726 212° Southwest 421 484 36,000  Level FlightAware ADS-B (KWWD)
02:36PM 38.0360 -75.3149 212° Southwest 419 482 36,000  Level FlightAware ADS-B (KWWD)
02:37PM 37.9741 -75.3637 212° Southwest 424 488 36,000  Level FlightAware ADS-B (KSBY)
02:37PM 37.9198 -75.4064 212° Southwest 422 486 36,000  Level FlightAware ADS-B (KWWD)
02:38PM 37.8595 -75.4538 212° Southwest 420 483 36,000  Level FlightAware ADS-B (KSBY)
02:39PM 37.8031 -75.4979 212° Southwest 420 483 36,000  Level FlightAware ADS-B (KWWD)
02:39PM 37.7432 -75.5447 212° Southwest 420 483 36,000  Level FlightAware ADS-B (KSBY)
02:40PM 37.6918 -75.5846 212° Southwest 419 482 36,000  Level FlightAware ADS-B (KWWD)
02:40PM 37.6446 -75.6215 212° Southwest 417 480 36,000  Level FlightAware ADS-B (KSBY)
02:41PM 37.5883 -75.6652 212° Southwest 415 478 36,000  Level FlightAware ADS-B (KWWD)
02:41PM 37.5309 -75.7098 212° Southwest 414 476 36,000  Level FlightAware ADS-B (KWWD)
02:42PM 37.4802 -75.7492 212° Southwest 415 478 36,000  Level FlightAware ADS-B (KWWD)
02:42PM 37.4272 -75.7901 212° Southwest 416 479 36,000  Level FlightAware ADS-B (KWWD)
02:43PM 37.3597 -75.8422 212° Southwest 416 479 36,000  Level FlightAware ADS-B (KWWD)
02:44PM 37.2951 -75.8920 212° Southwest 416 479 36,000  Level FlightAware ADS-B (KWWD)
02:44PM 37.2382 -75.9357 211° Southwest 414 476 36,000  Level FlightAware ADS-B (KWWD)
02:45PM 37.1805 -75.9800 211° Southwest 413 475 36,000  Level FlightAware ADS-B (KWWD)
02:46PM 37.1187 -76.0274 211° Southwest 414 476 36,000  Level FlightAware ADS-B (KWWD)
02:46PM 37.0552 -76.0760 211° Southwest 415 478 36,000  Level FlightAware ADS-B (KWWD)
02:47PM 37.0062 -76.1134 211° Southwest 416 479 36,000  Level FlightAware ADS-B
02:47PM 36.9347 -76.1679 211° Southwest 416 479 36,000  Level FlightAware ADS-B (KWWD)
02:48PM 36.9172 -76.1812 211° Southwest 417 480 36,000  Level FlightAware ADS-B
02:49PM 36.8257 -76.2604 215° Southwest 408 470 36,000  Level FlightAware ADS-B
02:49PM 36.8257 -76.2604 215° Southwest 409 471 36,000  Level FlightAware ADS-B
02:50PM 36.7149 -76.3620 216° Southwest 402 463 36,000  Level FlightAware ADS-B (KWWD)
02:51PM 36.6062 -76.4607 216° Southwest 409 471 36,000  Level FlightAware ADS-B
02:52PM 36.5530 -76.5087 216° Southwest 403 464 36,000  Level FlightAware ADS-B (KWWD)
02:54PM 36.3669 -76.6768 216° Southwest 412 474 36,000  Level FlightAware ADS-B
02:55PM 36.2967 -76.7414 216° Southwest 416 479 36,000  Level Washington Center
02:56PM 36.2039 -76.8225 215° Southwest 416 479 36,000  Level Washington Center
02:57PM 36.1114 -76.9058 216° Southwest 416 479 36,000  Level Washington Center
02:58PM 36.0206 -76.9864 216° Southwest 416 479 36,000  Level Washington Center
02:59PM 35.9278 -77.0694 216° Southwest 416 479 36,000  Level Washington Center
03:00PM 35.8331 -77.1419 212° Southwest 416 479 36,000  Level Washington Center
03:01PM 35.7136 -77.1858 197° South 421 484 36,000  Level Washington Center
03:02PM 35.5919 -77.2294 196° South 436 502 36,000  Level Washington Center
03:03PM 35.4767 -77.2703 196° South 441 507 36,000  Level Washington Center
03:04PM 35.3569 -77.3136 196° South 446 513 36,000  Level Washington Center
03:05PM 35.2356 -77.3569 196° South 446 513 36,000  Level Washington Center
03:06PM 35.1158 -77.4000 196° South 446 513 36,000  Level Washington Center
03:07PM 35.0006 -77.4406 196° South 446 513 36,000  Level Washington Center
03:08PM 34.8767 -77.4883 198° South 446 513 36,000  Level Washington Center
03:09PM 34.7464 -77.5358 197° South 446 513 36,000  Level Washington Center
03:11PM 34.5053 -77.6208 196° South 446 513 36,000  Level Washington Center
03:12PM 34.3875 -77.6631 196° South 446 513 36,000  Level Washington Center
03:15PM 33.9142 -77.8253 196° South 450 518 36,000  Level Jacksonville Center
03:16PM 33.7947 -77.8647 195° South 439 505 36,000  Level Jacksonville Center
03:17PM 33.6753 -77.9089 197° South 433 498 36,000  Level Jacksonville Center
03:18PM 33.5539 -77.9506 196° South 438 504 36,000  Level Jacksonville Center
03:19PM 33.4386 -77.9919 197° South 444 511 36,000  Level Jacksonville Center
03:20PM 33.3192 -78.0308 195° South 444 511 36,000  Level Jacksonville Center
03:21PM 33.1997 -78.0744 197° South 449 517 36,000  Level Jacksonville Center
03:22PM 33.0803 -78.1156 196° South 449 517 36,000  Level Jacksonville Center
03:23PM 32.9608 -78.1542 195° South 449 517 36,000  Level Jacksonville Center
03:24PM 32.8411 -78.1950 196° South 449 517 36,000  Level Jacksonville Center
03:25PM 32.7217 -78.2358 196° South 449 517 36,000  Level Jacksonville Center
03:26PM 32.6042 -78.2739 195° South 449 517 36,000  Level Jacksonville Center
03:27PM 32.4844 -78.3144 196° South 449 517 36,000  Level Jacksonville Center
03:28PM 32.3669 -78.3550 196° South 449 517 36,000  Level Jacksonville Center
03:29PM 32.2578 -78.3922 196° South 454 522 36,000  Level Jacksonville Center
03:30PM 32.1403 -78.4325 196° South 454 522 36,000  Level Jacksonville Center
03:31PM 32.0206 -78.4750 197° South 449 517 36,000  Level Jacksonville Center
03:32PM 31.9031 -78.5125 195° South 449 517 36,000  Level Jacksonville Center
03:33PM 31.7831 -78.5497 195° South 449 517 36,000  Level Jacksonville Center
03:34PM 31.6614 -78.5944 197° South 454 522 36,000  Level Jacksonville Center
03:35PM 31.5417 -78.6342 196° South 449 517 36,000  Level Jacksonville Center
03:36PM 31.4200 -78.6714 195° South 449 517 36,000  Level Jacksonville Center
03:37PM 31.3000 -78.7108 196° South 454 522 36,000  Level Jacksonville Center
03:38PM 31.1761 -78.7528 196° South 454 522 36,000  Level Jacksonville Center
03:39PM 31.0564 -78.7894 195° South 449 517 36,000  Level Jacksonville Center
03:40PM 30.9325 -78.8314 196° South 449 517 36,000  Level Jacksonville Center
03:41PM 30.8106 -78.8703 195° South 456 525 36,000  Level Jacksonville Center
03:43PM 30.6236 -78.9328 196° South 436 502 36,000  Level Miami Center
03:44PM 30.5003 -78.9714 195° South 449 517 36,000  Level Miami Center
03:45PM 30.3806 -79.0217 200° South 456 525 36,000  Level Miami Center
03:46PM 30.2611 -79.0675 198° South 462 532 36,000  Level Miami Center
03:47PM 30.1417 -79.1153 199° South 461 531 36,000  Level Miami Center
03:48PM 30.0219 -79.1606 198° South 461 531 36,000  Level Miami Center
03:49PM 29.9108 -79.2108 201° Southwest 474 545 36,000  Level Miami Center
03:50PM 29.7889 -79.2561 198° South 467 537 36,000  Level Miami Center
03:51PM 29.6653 -79.2986 197° South 467 537 36,000 -60 Level Miami Center
03:52PM 29.5475 -79.3486 200° South 467 537 35,900  Descending Miami Center
03:53PM 29.4300 -79.3889 197° South 456 525 36,000  Climbing Miami Center
03:54PM 29.3189 -79.4339 199° South 442 509 35,900  Descending Miami Center
04:00PM 28.6017 -79.6955 199° South 434 499 36,000  Climbing FlightAware ADS-B (KMCO)
04:01PM 28.4906 -79.7370 198° South 433 498 36,000  Level FlightAware ADS-B (KMCO)
04:01PM 28.4350 -79.7577 198° South 432 497 36,000  Level FlightAware ADS-B (KMCO)
04:02PM 28.3747 -79.7801 198° South 431 496 36,000  Level FlightAware ADS-B (KMCO)
04:02PM 28.3181 -79.8011 198° South 429 494 36,000  Level FlightAware ADS-B (KMCO)
04:03PM 28.2427 -79.8291 198° South 429 494 36,000  Level FlightAware ADS-B (KMCO)
04:04PM 28.1507 -79.8632 198° South 430 495 36,000  Level FlightAware ADS-B (KMCO)
04:05PM 28.0861 -79.8871 198° South 430 495 36,000  Level FlightAware ADS-B (KMCO)
04:05PM 28.0258 -79.9094 198° South 430 495 36,000  Level FlightAware ADS-B (KMCO)
04:06PM 27.9603 -79.9335 198° South 430 495 36,000  Level FlightAware ADS-B (KMCO)
04:06PM 27.8856 -79.9610 198° South 429 494 36,000  Level FlightAware ADS-B (KMCO)
04:07PM 27.8263 -79.9828 198° South 429 494 36,000  Level FlightAware ADS-B (KMCO)
04:07PM 27.7698 -80.0036 198° South 430 495 36,000  Level FlightAware ADS-B (KMCO)
04:08PM 27.6937 -80.0316 198° South 431 496 36,000  Level FlightAware ADS-B (KMCO)
04:09PM 27.6198 -80.0586 198° South 432 497 36,000  Level FlightAware ADS-B (KMCO)
04:09PM 27.5624 -80.0797 198° South 433 498 36,000  Level FlightAware ADS-B (KMCO)
04:10PM 27.4638 -80.1157 198° South 433 498 36,000  Level FlightAware ADS-B (KMCO)
04:11PM 27.3864 -80.1439 198° South 433 498 36,000  Level FlightAware ADS-B (KMCO)
04:11PM 27.3219 -80.1673 198° South 432 497 36,000  Level FlightAware ADS-B (KMCO)
04:12PM 27.2363 -80.1985 198° South 431 496 36,000  Level FlightAware ADS-B (KMCO)
04:13PM 27.1623 -80.2254 198° South 432 497 36,000  Level FlightAware ADS-B (KMCO)
04:14PM 27.0606 -80.2624 198° South 434 499 36,000  Level FlightAware ADS-B (KMCO)
04:14PM 26.9621 -80.2980 198° South 435 501 36,000  Level FlightAware ADS-B (KMCO)
04:15PM 26.9019 -80.3203 198° South 431 496 36,000  Level Miami Center
04:16PM 26.7881 -80.3636 199° South 431 496 36,000  Level Miami Center
04:17PM 26.6722 -80.4042 197° South 431 496 36,000  Level Miami Center
04:18PM 26.5564 -80.4450 198° South 431 496 36,000  Level Miami Center
04:19PM 26.4428 -80.4856 198° South 431 496 36,000  Level Miami Center
04:20PM 26.3289 -80.5283 199° South 431 496 36,000  Level Miami Center
04:21PM 26.2256 -80.5622 196° South 431 496 36,000  Level Miami Center
04:22PM 26.1117 -80.6050 199° South 431 496 36,000  Level Miami Center
04:23PM 25.9978 -80.6453 198° South 431 496 36,000  Level Miami Center
04:24PM 25.8714 -80.6922 198° South 431 496 36,000  Level Miami Center
04:25PM 25.7533 -80.7344 198° South 431 496 36,000  Level Miami Center
04:26PM 25.6492 -80.8025 210° Southwest 429 494 36,000  Level Miami Center
04:27PM 25.5653 -80.8942 225° Southwest 434 499 36,000  Level Miami Center
04:28PM 25.4792 -80.9833 223° Southwest 434 499 36,000  Level Miami Center
04:29PM 25.3931 -81.0769 224° Southwest 434 499 36,000  Level Miami Center
04:30PM 25.3047 -81.1658 222° Southwest 434 499 36,000 -60 Level Miami Center
04:31PM 25.2186 -81.2569 224° Southwest 429 494 35,900 -600 Descending Miami Center
04:32PM 25.1322 -81.3456 223° Southwest 429 494 34,900 -1,020 Descending Miami Center
04:33PM 25.0458 -81.4386 224° Southwest 435 501 33,900 -1,020 Descending Miami Center
04:34PM 24.9594 -81.5294 224° Southwest 435 501 32,900 -900 Descending Miami Center
04:35PM 24.8925 -81.6000 224° Southwest 435 501 32,100 -1,020 Descending Miami Center
04:36PM 24.7931 -81.7039 223° Southwest 430 495 30,900 -1,140 Descending Miami Center
04:37PM 24.7108 -81.7919 224° Southwest 425 489 29,900 -1,020 Descending Miami Center
04:38PM 24.6244 -81.8775 222° Southwest 425 489 28,900 -1,020 Descending Miami Center
04:39PM 24.5425 -81.9589 222° Southwest 412 474 27,900 -1,020 Descending Miami Center
04:40PM 24.4664 -82.0447 226° Southwest 402 463 26,900 -1,020 Descending Miami Center
04:41PM 24.3864 -82.1233 222° Southwest 397 457 25,900 -1,020 Descending Miami Center
04:42PM 24.3083 -82.2044 223° Southwest 392 451 24,900 -1,020 Descending Miami Center
04:43PM 24.2303 -82.2853 223° Southwest 387 445 23,900 -1,020 Descending Miami Center
04:44PM 24.1522 -82.3639 223° Southwest 387 445 22,900 -960 Descending Miami Center
04:45PM 24.0719 -82.4444 223° Southwest 381 438 22,000 -600 Descending Miami Center
04:46PM 23.9842 -82.5019 211° Southwest 381 438 21,800 -240 Descending Miami Center
04:48PM 23.7936 -82.4840 175° South  Level Estimated
04:55PM 22.9891 -82.4091 180° South  Level Estimated
04:56PM 22.9891 -82.4091 180° South  Level Estimated
04:57PM 22.9891 -82.4091 180° South  Level Estimated
04:58PM 22.9891 -82.4091 180° South  Level Estimated
04:59PM 22.9891 -82.4091 180° South  Level Estimated
05:00PM 22.9891 -82.4091 180° South  Level Estimated
05:01PM 22.9891 -82.4091 180° South  Level Estimated
05:02PM 22.9891 -82.4091 180° South  Level Estimated
05:03PM 22.9891 -82.4091 180° South  Level Estimated
05:04PM 22.9891 -82.4091 180° South  Level Estimated
05:05PM 22.9891 -82.4091 180° South  Level Estimated
05:06PM 22.9891 -82.4091 180° South  Level Estimated
05:07PM 22.9891 -82.4091 180° South  Level Estimated
05:08PM 22.9891 -82.4091 180° South  Level Estimated
05:09PM 22.9891 -82.4091 180° South  Level Estimated
05:10PM 22.9891 -82.4091 180° South  Level Estimated
05:11PM 22.9891 -82.4091 180° South  Level Estimated
05:12PM 22.9891 -82.4091 180° South  Level Estimated
05:13PM 22.9891 -82.4091 180° South  Level Estimated
05:14PM 22.9891 -82.4091 180° South  Level Estimated
05:15PM 22.9891 -82.4091 180° South  Level Estimated
05:16PM 22.9891 -82.4091 180° South  Level Estimated
05:17PM 22.9891 -82.4091 180° South  Level Estimated